sensor_id;sensor_type;location;lat;lon;timestamp;pressure;altitude;pressure_sealevel;temperature;humidity
39129;BME280;24864;49.940;19.770;2022-12-31T00:00:31;76948.22;;;-147.98;100.00
39129;BME280;24864;49.940;19.770;2022-12-31T00:03:20;76952.38;;;-147.98;100.00
39129;BME280;24864;49.940;19.770;2022-12-31T00:05:48;76933.66;;;-147.98;100.00
39129;BME280;24864;49.940;19.770;2022-12-31T00:08:16;76923.25;;;-147.98;100.00
39129;BME280;24864;49.940;19.770;2022-12-31T00:10:44;76910.78;;;-147.98;100.00
39129;BME280;24864;49.940;19.770;2022-12-31T00:13:13;76931.56;;;-147.98;100.00
39129;BME280;24864;49.940;19.770;2022-12-31T00:15:42;76950.28;;;-147.98;100.00
39129;BME280;24864;49.940;19.770;2022-12-31T00:18:10;76964.84;;;-147.98;100.00
39129;BME280;24864;49.940;19.770;2022-12-31T00:20:40;76979.41;;;-147.98;100.00
39129;BME280;24864;49.940;19.770;2022-12-31T00:23:09;76998.13;;;-147.98;100.00
39129;BME280;24864;49.940;19.770;2022-12-31T00:25:37;77037.63;;;-147.98;100.00
39129;BME280;24864;49.940;19.770;2022-12-31T00:28:05;77031.38;;;-147.98;100.00
39129;BME280;24864;49.940;19.770;2022-12-31T00:30:33;77029.31;;;-147.98;100.00
39129;BME280;24864;49.940;19.770;2022-12-31T00:33:01;77012.66;;;-147.98;100.00
39129;BME280;24864;49.940;19.770;2022-12-31T00:35:29;77002.28;;;-147.98;100.00
39129;BME280;24864;49.940;19.770;2022-12-31T00:37:59;76985.63;;;-147.98;100.00
39129;BME280;24864;49.940;19.770;2022-12-31T00:40:27;76964.84;;;-147.98;100.00
39129;BME280;24864;49.940;19.770;2022-12-31T00:42:55;76906.63;;;-147.98;100.00
39129;BME280;24864;49.940;19.770;2022-12-31T00:45:23;76887.91;;;-147.98;100.00
39129;BME280;24864;49.940;19.770;2022-12-31T00:47:51;76900.38;;;-147.98;100.00
39129;BME280;24864;49.940;19.770;2022-12-31T00:50:19;76917.03;;;-147.98;100.00
39129;BME280;24864;49.940;19.770;2022-12-31T00:52:47;76931.56;;;-147.98;100.00
39129;BME280;24864;49.940;19.770;2022-12-31T00:55:16;76952.38;;;-147.98;100.00
39129;BME280;24864;49.940;19.770;2022-12-31T00:57:45;76973.16;;;-147.98;100.00
39129;BME280;24864;49.940;19.770;2022-12-31T01:00:14;76985.63;;;-147.98;100.00
39129;BME280;24864;49.940;19.770;2022-12-31T01:02:42;76991.88;;;-147.98;100.00
39129;BME280;24864;49.940;19.770;2022-12-31T01:05:11;76989.81;;;-147.98;100.00
39129;BME280;24864;49.940;19.770;2022-12-31T01:07:39;76985.63;;;-147.98;100.00
39129;BME280;24864;49.940;19.770;2022-12-31T01:10:07;76914.94;;;-147.98;100.00
39129;BME280;24864;49.940;19.770;2022-12-31T01:12:37;76890.00;;;-147.98;100.00
39129;BME280;24864;49.940;19.770;2022-12-31T01:15:06;76844.25;;;-147.98;100.00
39129;BME280;24864;49.940;19.770;2022-12-31T01:17:34;76819.28;;;-147.98;100.00
39129;BME280;24864;49.940;19.770;2022-12-31T01:20:02;76790.19;;;-147.98;100.00
39129;BME280;24864;49.940;19.770;2022-12-31T01:22:30;76761.06;;;-147.98;100.00
39129;BME280;24864;49.940;19.770;2022-12-31T01:24:58;76738.19;;;-147.98;100.00
39129;BME280;24864;49.940;19.770;2022-12-31T01:27:27;76742.34;;;-147.98;100.00
39129;BME280;24864;49.940;19.770;2022-12-31T01:29:56;76736.13;;;-147.98;100.00
39129;BME280;24864;49.940;19.770;2022-12-31T01:32:24;76748.59;;;-147.98;100.00
39129;BME280;24864;49.940;19.770;2022-12-31T01:34:52;76729.88;;;-147.98;100.00
39129;BME280;24864;49.940;19.770;2022-12-31T01:37:20;76700.78;;;-147.98;100.00
39129;BME280;24864;49.940;19.770;2022-12-31T01:39:48;76684.13;;;-147.98;100.00
39129;BME280;24864;49.940;19.770;2022-12-31T01:42:16;76665.44;;;-147.98;100.00
39129;BME280;24864;49.940;19.770;2022-12-31T01:44:51;76657.09;;;-147.98;100.00
39129;BME280;24864;49.940;19.770;2022-12-31T01:47:30;76665.44;;;-147.98;100.00
39129;BME280;24864;49.940;19.770;2022-12-31T01:50:04;76669.59;;;-147.98;100.00
39129;BME280;24864;49.940;19.770;2022-12-31T01:52:35;76707.00;;;-147.98;100.00
39129;BME280;24864;49.940;19.770;2022-12-31T01:55:07;76707.00;;;-147.98;100.00
39129;BME280;24864;49.940;19.770;2022-12-31T01:57:36;76702.84;;;-147.98;100.00
39129;BME280;24864;49.940;19.770;2022-12-31T02:00:06;76696.63;;;-147.98;100.00
39129;BME280;24864;49.940;19.770;2022-12-31T02:02:35;76729.88;;;-147.98;100.00
39129;BME280;24864;49.940;19.770;2022-12-31T02:05:08;76727.81;;;-147.98;100.00
39129;BME280;24864;49.940;19.770;2022-12-31T02:07:40;76731.97;;;-147.98;100.00
39129;BME280;24864;49.940;19.770;2022-12-31T02:10:08;76727.81;;;-147.98;100.00
39129;BME280;24864;49.940;19.770;2022-12-31T02:12:36;76704.94;;;-147.98;100.00
39129;BME280;24864;49.940;19.770;2022-12-31T02:15:05;76609.28;;;-147.98;100.00
39129;BME280;24864;49.940;19.770;2022-12-31T02:17:39;76540.66;;;-147.98;100.00
39129;BME280;24864;49.940;19.770;2022-12-31T02:20:30;76521.97;;;-147.98;100.00
39129;BME280;24864;49.940;19.770;2022-12-31T02:23:23;76519.88;;;-147.98;100.00
39129;BME280;24864;49.940;19.770;2022-12-31T02:26:17;76511.56;;;-147.98;100.00
39129;BME280;24864;49.940;19.770;2022-12-31T02:29:13;76457.50;;;-147.98;100.00
39129;BME280;24864;49.940;19.770;2022-12-31T02:31:52;76490.78;;;-147.98;100.00
39129;BME280;24864;49.940;19.770;2022-12-31T02:34:28;76517.81;;;-147.98;100.00
39129;BME280;24864;49.940;19.770;2022-12-31T02:37:00;76515.72;;;-147.98;100.00
39129;BME280;24864;49.940;19.770;2022-12-31T02:39:30;76519.88;;;-147.98;100.00
39129;BME280;24864;49.940;19.770;2022-12-31T02:41:59;76532.34;;;-147.98;100.00
39129;BME280;24864;49.940;19.770;2022-12-31T02:44:29;76490.78;;;-147.98;100.00
39129;BME280;24864;49.940;19.770;2022-12-31T02:47:09;76374.34;;;-147.98;100.00
39129;BME280;24864;49.940;19.770;2022-12-31T02:49:41;76241.28;;;-147.98;100.00
39129;BME280;24864;49.940;19.770;2022-12-31T02:52:20;76191.38;;;-147.98;96.97
39129;BME280;24864;49.940;19.770;2022-12-31T02:54:57;76172.69;;;-147.98;100.00
39129;BME280;24864;49.940;19.770;2022-12-31T02:57:34;76124.84;;;-147.98;99.02
39129;BME280;24864;49.940;19.770;2022-12-31T03:00:07;76066.66;;;-147.98;96.24
39129;BME280;24864;49.940;19.770;2022-12-31T03:02:55;76035.47;;;-147.98;94.28
39129;BME280;24864;49.940;19.770;2022-12-31T03:05:27;76002.19;;;-147.98;92.19
39129;BME280;24864;49.940;19.770;2022-12-31T03:07:56;76004.28;;;-147.98;92.12
39129;BME280;24864;49.940;19.770;2022-12-31T03:10:24;75968.94;;;-147.98;90.79
39129;BME280;24864;49.940;19.770;2022-12-31T03:12:52;75958.53;;;-147.98;91.22
39129;BME280;24864;49.940;19.770;2022-12-31T03:15:22;75973.09;;;-147.98;91.34
39129;BME280;24864;49.940;19.770;2022-12-31T03:17:57;75954.38;;;-147.98;90.38
39129;BME280;24864;49.940;19.770;2022-12-31T03:20:29;75946.06;;;-147.98;89.58
39129;BME280;24864;49.940;19.770;2022-12-31T03:23:18;75933.59;;;-147.98;88.90
39129;BME280;24864;49.940;19.770;2022-12-31T03:25:47;75929.44;;;-147.98;89.31
39129;BME280;24864;49.940;19.770;2022-12-31T03:28:16;75950.22;;;-147.98;90.05
39129;BME280;24864;49.940;19.770;2022-12-31T03:30:47;75933.59;;;-147.98;89.77
39129;BME280;24864;49.940;19.770;2022-12-31T03:33:17;75941.91;;;-147.98;90.40
39129;BME280;24864;49.940;19.770;2022-12-31T03:35:46;75952.31;;;-147.98;90.80
39129;BME280;24864;49.940;19.770;2022-12-31T03:38:15;75962.69;;;-147.98;91.29
39129;BME280;24864;49.940;19.770;2022-12-31T03:40:47;75973.09;;;-147.98;92.09
39129;BME280;24864;49.940;19.770;2022-12-31T03:43:15;75975.19;;;-147.98;92.34
39129;BME280;24864;49.940;19.770;2022-12-31T03:45:47;75998.03;;;-147.98;92.72
39129;BME280;24864;49.940;19.770;2022-12-31T03:48:14;76012.59;;;-147.98;93.79
39129;BME280;24864;49.940;19.770;2022-12-31T03:50:44;76004.28;;;-147.98;93.00
39129;BME280;24864;49.940;19.770;2022-12-31T03:53:12;75983.50;;;-147.98;91.61
39129;BME280;24864;49.940;19.770;2022-12-31T03:55:40;76004.28;;;-147.98;92.20
39129;BME280;24864;49.940;19.770;2022-12-31T03:58:08;76000.13;;;-147.98;92.09
39129;BME280;24864;49.940;19.770;2022-12-31T04:00:36;75975.19;;;-147.98;91.50
39129;BME280;24864;49.940;19.770;2022-12-31T04:03:04;75975.19;;;-147.98;91.52
39129;BME280;24864;49.940;19.770;2022-12-31T04:05:32;75983.50;;;-147.98;91.96
39129;BME280;24864;49.940;19.770;2022-12-31T04:08:02;75977.25;;;-147.98;91.52
39129;BME280;24864;49.940;19.770;2022-12-31T04:10:30;75962.69;;;-147.98;91.50
39129;BME280;24864;49.940;19.770;2022-12-31T04:12:57;75977.25;;;-147.98;92.20
39129;BME280;24864;49.940;19.770;2022-12-31T04:15:28;75983.50;;;-147.98;91.97
39129;BME280;24864;49.940;19.770;2022-12-31T04:17:56;75989.72;;;-147.98;91.81
39129;BME280;24864;49.940;19.770;2022-12-31T04:20:24;75987.66;;;-147.98;91.48
39129;BME280;24864;49.940;19.770;2022-12-31T04:22:52;75983.50;;;-147.98;91.06
39129;BME280;24864;49.940;19.770;2022-12-31T04:25:21;75958.53;;;-147.98;89.76
39129;BME280;24864;49.940;19.770;2022-12-31T04:27:49;75962.69;;;-147.98;90.12
39129;BME280;24864;49.940;19.770;2022-12-31T04:30:17;75971.03;;;-147.98;89.82
39129;BME280;24864;49.940;19.770;2022-12-31T04:32:45;75975.19;;;-147.98;90.22
39129;BME280;24864;49.940;19.770;2022-12-31T04:35:13;75966.84;;;-147.98;89.18
39129;BME280;24864;49.940;19.770;2022-12-31T04:37:41;75946.06;;;-147.98;87.85
39129;BME280;24864;49.940;19.770;2022-12-31T04:40:09;75941.91;;;-147.98;87.52
39129;BME280;24864;49.940;19.770;2022-12-31T04:42:39;75962.69;;;-147.98;87.44
39129;BME280;24864;49.940;19.770;2022-12-31T04:45:07;75958.53;;;-147.98;87.59
39129;BME280;24864;49.940;19.770;2022-12-31T04:47:35;75958.53;;;-147.98;87.17
39129;BME280;24864;49.940;19.770;2022-12-31T04:50:04;75954.38;;;-147.98;86.77
39129;BME280;24864;49.940;19.770;2022-12-31T04:52:32;75944.00;;;-147.98;86.39
39129;BME280;24864;49.940;19.770;2022-12-31T04:55:09;75950.22;;;-147.98;86.35
39129;BME280;24864;49.940;19.770;2022-12-31T04:57:39;75946.06;;;-147.98;86.27
39129;BME280;24864;49.940;19.770;2022-12-31T05:00:08;75950.22;;;-147.98;86.63
39129;BME280;24864;49.940;19.770;2022-12-31T05:02:36;75966.84;;;-147.98;86.96
39129;BME280;24864;49.940;19.770;2022-12-31T05:05:06;75973.09;;;-147.98;87.66
39129;BME280;24864;49.940;19.770;2022-12-31T05:07:34;75958.53;;;-147.98;87.10
39129;BME280;24864;49.940;19.770;2022-12-31T05:10:03;75958.53;;;-147.98;87.26
39129;BME280;24864;49.940;19.770;2022-12-31T05:12:31;75966.84;;;-147.98;88.20
39129;BME280;24864;49.940;19.770;2022-12-31T05:15:00;75971.03;;;-147.98;89.07
39129;BME280;24864;49.940;19.770;2022-12-31T05:17:28;75977.25;;;-147.98;89.44
39129;BME280;24864;49.940;19.770;2022-12-31T05:19:56;75993.88;;;-147.98;90.33
39129;BME280;24864;49.940;19.770;2022-12-31T05:22:24;76002.19;;;-147.98;90.92
39129;BME280;24864;49.940;19.770;2022-12-31T05:24:59;75989.72;;;-147.98;91.13
39129;BME280;24864;49.940;19.770;2022-12-31T05:27:27;75983.50;;;-147.98;91.08
39129;BME280;24864;49.940;19.770;2022-12-31T05:29:58;75991.81;;;-147.98;91.19
39129;BME280;24864;49.940;19.770;2022-12-31T05:32:27;75991.81;;;-147.98;91.50
39129;BME280;24864;49.940;19.770;2022-12-31T05:34:55;75995.97;;;-147.98;91.81
39129;BME280;24864;49.940;19.770;2022-12-31T05:37:25;75987.66;;;-147.98;91.81
39129;BME280;24864;49.940;19.770;2022-12-31T05:39:54;75985.56;;;-147.98;91.99
39129;BME280;24864;49.940;19.770;2022-12-31T05:42:22;75989.72;;;-147.98;92.53
39129;BME280;24864;49.940;19.770;2022-12-31T05:44:50;75964.78;;;-147.98;91.74
39129;BME280;24864;49.940;19.770;2022-12-31T05:47:18;75954.38;;;-147.98;91.57
39129;BME280;24864;49.940;19.770;2022-12-31T05:49:48;75954.38;;;-147.98;91.48
39129;BME280;24864;49.940;19.770;2022-12-31T05:52:17;75937.75;;;-147.98;91.31
39129;BME280;24864;49.940;19.770;2022-12-31T05:54:45;75937.75;;;-147.98;91.51
39129;BME280;24864;49.940;19.770;2022-12-31T05:57:13;75937.75;;;-147.98;91.55
39129;BME280;24864;49.940;19.770;2022-12-31T05:59:41;75939.84;;;-147.98;92.29
39129;BME280;24864;49.940;19.770;2022-12-31T06:02:09;75937.75;;;-147.98;92.66
39129;BME280;24864;49.940;19.770;2022-12-31T06:04:37;75929.44;;;-147.98;93.11
39129;BME280;24864;49.940;19.770;2022-12-31T06:07:06;75937.75;;;-147.98;93.38
39129;BME280;24864;49.940;19.770;2022-12-31T06:09:34;75933.59;;;-147.98;93.44
39129;BME280;24864;49.940;19.770;2022-12-31T06:12:02;75946.06;;;-147.98;93.88
39129;BME280;24864;49.940;19.770;2022-12-31T06:14:31;75954.38;;;-147.98;94.54
39129;BME280;24864;49.940;19.770;2022-12-31T06:16:59;75941.91;;;-147.98;94.33
39129;BME280;24864;49.940;19.770;2022-12-31T06:19:27;75960.63;;;-147.98;95.08
39129;BME280;24864;49.940;19.770;2022-12-31T06:21:55;75954.38;;;-147.98;95.59
39129;BME280;24864;49.940;19.770;2022-12-31T06:24:24;75941.91;;;-147.98;94.33
39129;BME280;24864;49.940;19.770;2022-12-31T06:26:52;75954.38;;;-147.98;94.82
39129;BME280;24864;49.940;19.770;2022-12-31T06:29:20;75958.53;;;-147.98;94.33
39129;BME280;24864;49.940;19.770;2022-12-31T06:31:48;75962.69;;;-147.98;94.74
39129;BME280;24864;49.940;19.770;2022-12-31T06:34:16;75975.19;;;-147.98;95.22
39129;BME280;24864;49.940;19.770;2022-12-31T06:36:44;75975.19;;;-147.98;95.17
39129;BME280;24864;49.940;19.770;2022-12-31T06:39:12;75985.56;;;-147.98;95.14
39129;BME280;24864;49.940;19.770;2022-12-31T06:41:41;75989.72;;;-147.98;95.33
39129;BME280;24864;49.940;19.770;2022-12-31T06:44:12;75995.97;;;-147.98;95.77
39129;BME280;24864;49.940;19.770;2022-12-31T06:46:40;75995.97;;;-147.98;95.66
39129;BME280;24864;49.940;19.770;2022-12-31T06:49:08;76004.28;;;-147.98;95.94
39129;BME280;24864;49.940;19.770;2022-12-31T06:51:36;76002.19;;;-147.98;95.36
39129;BME280;24864;49.940;19.770;2022-12-31T06:54:05;76002.19;;;-147.98;95.64
39129;BME280;24864;49.940;19.770;2022-12-31T06:56:34;75993.88;;;-147.98;95.09
39129;BME280;24864;49.940;19.770;2022-12-31T06:59:04;75987.66;;;-147.98;95.09
39129;BME280;24864;49.940;19.770;2022-12-31T07:01:40;75991.81;;;-147.98;95.07
39129;BME280;24864;49.940;19.770;2022-12-31T07:04:36;75995.97;;;-147.98;95.40
39129;BME280;24864;49.940;19.770;2022-12-31T07:07:16;76000.13;;;-147.98;95.58
39129;BME280;24864;49.940;19.770;2022-12-31T07:09:54;75995.97;;;-147.98;95.07
39129;BME280;24864;49.940;19.770;2022-12-31T07:12:44;75991.81;;;-147.98;95.42
39129;BME280;24864;49.940;19.770;2022-12-31T07:15:26;76000.13;;;-147.98;95.81
39129;BME280;24864;49.940;19.770;2022-12-31T07:18:03;75983.50;;;-147.98;95.30
39129;BME280;24864;49.940;19.770;2022-12-31T07:20:33;75975.19;;;-147.98;94.92
39129;BME280;24864;49.940;19.770;2022-12-31T07:23:02;75962.69;;;-147.98;94.84
39129;BME280;24864;49.940;19.770;2022-12-31T07:25:30;75950.22;;;-147.98;94.02
39129;BME280;24864;49.940;19.770;2022-12-31T07:28:07;75956.47;;;-147.98;94.04
39129;BME280;24864;49.940;19.770;2022-12-31T07:30:44;75948.16;;;-147.98;93.41
39129;BME280;24864;49.940;19.770;2022-12-31T07:33:23;75950.22;;;-147.98;92.88
39129;BME280;24864;49.940;19.770;2022-12-31T07:36:00;75941.91;;;-147.98;92.56
39129;BME280;24864;49.940;19.770;2022-12-31T07:38:36;75933.59;;;-147.98;92.50
39129;BME280;24864;49.940;19.770;2022-12-31T07:41:11;75925.28;;;-147.98;92.50
39129;BME280;24864;49.940;19.770;2022-12-31T07:43:54;75921.13;;;-147.98;92.46
39129;BME280;24864;49.940;19.770;2022-12-31T07:46:30;75921.13;;;-147.98;92.55
39129;BME280;24864;49.940;19.770;2022-12-31T07:49:01;75904.50;;;-147.98;91.87
39129;BME280;24864;49.940;19.770;2022-12-31T07:51:29;75912.81;;;-147.98;92.34
39129;BME280;24864;49.940;19.770;2022-12-31T07:53:57;75908.66;;;-147.98;92.18
39129;BME280;24864;49.940;19.770;2022-12-31T07:56:26;75921.13;;;-147.98;92.54
39129;BME280;24864;49.940;19.770;2022-12-31T07:59:02;75916.97;;;-147.98;92.37
39129;BME280;24864;49.940;19.770;2022-12-31T08:01:40;75908.66;;;-147.98;92.09
39129;BME280;24864;49.940;19.770;2022-12-31T08:04:17;75916.97;;;-147.98;91.92
39129;BME280;24864;49.940;19.770;2022-12-31T08:06:53;75894.09;;;-147.98;91.88
39129;BME280;24864;49.940;19.770;2022-12-31T08:09:36;75892.03;;;-147.98;91.74
39129;BME280;24864;49.940;19.770;2022-12-31T08:12:06;75879.56;;;-147.98;91.69
39129;BME280;24864;49.940;19.770;2022-12-31T08:14:39;75871.22;;;-147.98;91.61
39129;BME280;24864;49.940;19.770;2022-12-31T08:17:13;75862.91;;;-147.98;91.27
39129;BME280;24864;49.940;19.770;2022-12-31T08:19:42;75842.13;;;-147.98;90.79
39129;BME280;24864;49.940;19.770;2022-12-31T08:22:20;75833.81;;;-147.98;90.53
39129;BME280;24864;49.940;19.770;2022-12-31T08:25:01;75837.97;;;-147.98;90.34
39129;BME280;24864;49.940;19.770;2022-12-31T08:27:39;75848.38;;;-147.98;90.99
39129;BME280;24864;49.940;19.770;2022-12-31T08:30:14;75850.44;;;-147.98;90.68
39129;BME280;24864;49.940;19.770;2022-12-31T08:32:48;75850.44;;;-147.98;91.06
39129;BME280;24864;49.940;19.770;2022-12-31T08:35:27;75840.06;;;-147.98;90.96
39129;BME280;24864;49.940;19.770;2022-12-31T08:38:06;75842.13;;;-147.98;91.37
39129;BME280;24864;49.940;19.770;2022-12-31T08:40:45;75842.13;;;-147.98;91.57
39129;BME280;24864;49.940;19.770;2022-12-31T08:43:28;75858.75;;;-147.98;91.42
39129;BME280;24864;49.940;19.770;2022-12-31T08:46:00;75850.44;;;-147.98;91.53
39129;BME280;24864;49.940;19.770;2022-12-31T08:48:34;75837.97;;;-147.98;91.18
39129;BME280;24864;49.940;19.770;2022-12-31T08:51:07;75833.81;;;-147.98;90.91
39129;BME280;24864;49.940;19.770;2022-12-31T08:53:40;75804.72;;;-147.98;89.77
39129;BME280;24864;49.940;19.770;2022-12-31T08:56:12;75810.94;;;-147.98;89.16
39129;BME280;24864;49.940;19.770;2022-12-31T08:58:52;75810.94;;;-147.98;89.01
39129;BME280;24864;49.940;19.770;2022-12-31T09:01:27;75815.09;;;-147.98;89.88
39129;BME280;24864;49.940;19.770;2022-12-31T09:04:08;75823.41;;;-147.98;89.58
39129;BME280;24864;49.940;19.770;2022-12-31T09:06:42;75817.19;;;-147.98;89.39
39129;BME280;24864;49.940;19.770;2022-12-31T09:09:19;75823.41;;;-147.98;89.52
39129;BME280;24864;49.940;19.770;2022-12-31T09:11:53;75813.03;;;-147.98;89.51
39129;BME280;24864;49.940;19.770;2022-12-31T09:14:39;75800.56;;;-147.98;88.94
39129;BME280;24864;49.940;19.770;2022-12-31T09:17:22;75808.88;;;-147.98;89.40
39129;BME280;24864;49.940;19.770;2022-12-31T09:19:56;75796.41;;;-147.98;89.35
39129;BME280;24864;49.940;19.770;2022-12-31T09:22:24;75767.28;;;-147.98;88.65
39129;BME280;24864;49.940;19.770;2022-12-31T09:24:52;75767.28;;;-147.98;87.73
39129;BME280;24864;49.940;19.770;2022-12-31T09:27:24;75779.75;;;-147.98;88.15
39129;BME280;24864;49.940;19.770;2022-12-31T09:29:59;75779.75;;;-147.98;88.48
39129;BME280;24864;49.940;19.770;2022-12-31T09:32:38;75777.69;;;-147.98;88.64
39129;BME280;24864;49.940;19.770;2022-12-31T09:35:18;75769.38;;;-147.98;88.27
39129;BME280;24864;49.940;19.770;2022-12-31T09:37:49;75758.97;;;-147.98;88.03
39129;BME280;24864;49.940;19.770;2022-12-31T09:40:39;75731.94;;;-147.98;87.61
39129;BME280;24864;49.940;19.770;2022-12-31T09:43:45;75704.94;;;-147.98;87.70
39129;BME280;24864;49.940;19.770;2022-12-31T09:46:34;75684.16;;;-147.98;85.93
39129;BME280;24864;49.940;19.770;2022-12-31T09:49:40;75684.16;;;-147.98;86.37
39129;BME280;24864;49.940;19.770;2022-12-31T09:52:23;75661.28;;;-147.98;85.31
39129;BME280;24864;49.940;19.770;2022-12-31T09:55:11;75650.88;;;-147.98;84.91
39129;BME280;24864;49.940;19.770;2022-12-31T09:57:50;75636.34;;;-147.98;84.32
39129;BME280;24864;49.940;19.770;2022-12-31T10:00:30;75607.22;;;-147.98;83.66
39129;BME280;24864;49.940;19.770;2022-12-31T10:03:15;75584.38;;;-147.98;83.21
39129;BME280;24864;49.940;19.770;2022-12-31T10:05:58;75584.38;;;-147.98;83.66
39129;BME280;24864;49.940;19.770;2022-12-31T10:08:43;75559.41;;;-147.98;82.70
39129;BME280;24864;49.940;19.770;2022-12-31T10:11:18;75530.31;;;-147.98;81.67
39129;BME280;24864;49.940;19.770;2022-12-31T10:14:00;75532.41;;;-147.98;81.73
39129;BME280;24864;49.940;19.770;2022-12-31T10:16:48;75551.09;;;-147.98;81.85
39129;BME280;24864;49.940;19.770;2022-12-31T10:22:42;75592.69;;;-147.98;83.17
39129;BME280;24864;49.940;19.770;2022-12-31T10:25:30;75609.31;;;-147.98;84.09
39129;BME280;24864;49.940;19.770;2022-12-31T10:28:14;75596.84;;;-147.98;84.46
39129;BME280;24864;49.940;19.770;2022-12-31T10:30:52;75576.06;;;-147.98;84.30
39129;BME280;24864;49.940;19.770;2022-12-31T10:33:35;75557.34;;;-147.98;83.69
39129;BME280;24864;49.940;19.770;2022-12-31T10:36:14;75555.25;;;-147.98;84.45
39129;BME280;24864;49.940;19.770;2022-12-31T10:38:55;75565.66;;;-147.98;84.55
39129;BME280;24864;49.940;19.770;2022-12-31T10:41:57;75522.00;;;-147.98;83.26
39129;BME280;24864;49.940;19.770;2022-12-31T10:47:47;75580.22;;;-147.98;85.22
39129;BME280;24864;49.940;19.770;2022-12-31T10:54:00;75601.00;;;-147.98;85.25
39129;BME280;24864;49.940;19.770;2022-12-31T11:00:00;75571.91;;;-147.98;83.80
39129;BME280;24864;49.940;19.770;2022-12-31T11:06:31;75584.38;;;-147.98;84.01
39129;BME280;24864;49.940;19.770;2022-12-31T11:09:24;75580.22;;;-147.98;84.41
39129;BME280;24864;49.940;19.770;2022-12-31T11:12:04;75605.16;;;-147.98;84.64
39129;BME280;24864;49.940;19.770;2022-12-31T11:15:09;75621.78;;;-147.98;84.83
39129;BME280;24864;49.940;19.770;2022-12-31T11:17:47;75625.94;;;-147.98;85.22
39129;BME280;24864;49.940;19.770;2022-12-31T11:20:29;75621.78;;;-147.98;85.62
39129;BME280;24864;49.940;19.770;2022-12-31T11:23:03;75623.84;;;-147.98;85.43
39129;BME280;24864;49.940;19.770;2022-12-31T11:25:45;75634.25;;;-147.98;85.63
39129;BME280;24864;49.940;19.770;2022-12-31T11:28:29;75613.47;;;-147.98;84.95
39129;BME280;24864;49.940;19.770;2022-12-31T11:31:30;75621.78;;;-147.98;85.57
39129;BME280;24864;49.940;19.770;2022-12-31T11:34:10;75619.69;;;-147.98;85.56
39129;BME280;24864;49.940;19.770;2022-12-31T11:36:46;75621.78;;;-147.98;85.66
39129;BME280;24864;49.940;19.770;2022-12-31T11:39:33;75634.25;;;-147.98;85.41
39129;BME280;24864;49.940;19.770;2022-12-31T11:42:06;75628.03;;;-147.98;85.41
39129;BME280;24864;49.940;19.770;2022-12-31T11:44:44;75621.78;;;-147.98;85.83
39129;BME280;24864;49.940;19.770;2022-12-31T11:47:38;75625.94;;;-147.98;85.98
39129;BME280;24864;49.940;19.770;2022-12-31T11:50:38;75611.38;;;-147.98;85.57
39129;BME280;24864;49.940;19.770;2022-12-31T11:53:33;75605.16;;;-147.98;85.09
39129;BME280;24864;49.940;19.770;2022-12-31T11:56:11;75609.31;;;-147.98;85.63
39129;BME280;24864;49.940;19.770;2022-12-31T11:58:45;75613.47;;;-147.98;84.96
39129;BME280;24864;49.940;19.770;2022-12-31T12:01:17;75609.31;;;-147.98;85.44
39129;BME280;24864;49.940;19.770;2022-12-31T12:03:49;75621.78;;;-147.98;86.01
39129;BME280;24864;49.940;19.770;2022-12-31T12:06:23;75613.47;;;-147.98;85.65
39129;BME280;24864;49.940;19.770;2022-12-31T12:08:55;75588.53;;;-147.98;85.43
39129;BME280;24864;49.940;19.770;2022-12-31T12:11:28;75584.38;;;-147.98;84.57
39129;BME280;24864;49.940;19.770;2022-12-31T12:13:57;75586.44;;;-147.98;84.84
39129;BME280;24864;49.940;19.770;2022-12-31T12:16:25;75584.38;;;-147.98;84.61
39129;BME280;24864;49.940;19.770;2022-12-31T12:19:03;75580.22;;;-147.98;84.17
39129;BME280;24864;49.940;19.770;2022-12-31T12:21:32;75567.75;;;-147.98;83.89
39129;BME280;24864;49.940;19.770;2022-12-31T12:24:02;75571.91;;;-147.98;84.01
39129;BME280;24864;49.940;19.770;2022-12-31T12:26:33;75571.91;;;-147.98;83.66
39129;BME280;24864;49.940;19.770;2022-12-31T12:29:10;75567.75;;;-147.98;83.35
39129;BME280;24864;49.940;19.770;2022-12-31T12:31:38;75565.66;;;-147.98;83.57
39129;BME280;24864;49.940;19.770;2022-12-31T12:34:21;75580.22;;;-147.98;84.20
39129;BME280;24864;49.940;19.770;2022-12-31T12:36:49;75563.56;;;-147.98;84.01
39129;BME280;24864;49.940;19.770;2022-12-31T12:39:20;75563.56;;;-147.98;83.89
39129;BME280;24864;49.940;19.770;2022-12-31T12:41:58;75567.75;;;-147.98;84.18
39129;BME280;24864;49.940;19.770;2022-12-31T12:44:27;75561.50;;;-147.98;84.18
39129;BME280;24864;49.940;19.770;2022-12-31T12:46:55;75578.13;;;-147.98;84.76
39129;BME280;24864;49.940;19.770;2022-12-31T12:49:25;75576.06;;;-147.98;84.56
39129;BME280;24864;49.940;19.770;2022-12-31T12:52:08;75584.38;;;-147.98;85.03
39129;BME280;24864;49.940;19.770;2022-12-31T12:54:55;75584.38;;;-147.98;84.94
39129;BME280;24864;49.940;19.770;2022-12-31T12:57:33;75588.53;;;-147.98;85.55
39129;BME280;24864;49.940;19.770;2022-12-31T13:00:14;75596.84;;;-147.98;85.96
39129;BME280;24864;49.940;19.770;2022-12-31T13:05:57;75609.31;;;-147.98;86.43
39129;BME280;24864;49.940;19.770;2022-12-31T13:08:46;75601.00;;;-147.98;86.37
39129;BME280;24864;49.940;19.770;2022-12-31T13:11:31;75601.00;;;-147.98;86.45
39129;BME280;24864;49.940;19.770;2022-12-31T13:14:03;75592.69;;;-147.98;86.24
39129;BME280;24864;49.940;19.770;2022-12-31T13:16:37;75598.91;;;-147.98;86.67
39129;BME280;24864;49.940;19.770;2022-12-31T13:19:11;75592.69;;;-147.98;86.26
39129;BME280;24864;49.940;19.770;2022-12-31T13:21:49;75588.53;;;-147.98;86.11